createdAt,value
2019-05-06T00:01:33.775Z,100549.92
2019-05-06T00:04:01.050Z,100547.03
2019-05-06T00:06:30.192Z,100552.45
2019-05-06T00:08:59.054Z,100547.76
2019-05-06T00:11:26.197Z,100550.92
2019-05-06T00:13:54.272Z,100545.34
2019-05-06T00:16:23.800Z,100551.65
2019-05-06T00:18:50.700Z,100550.48
2019-05-06T00:21:17.770Z,100551.06
2019-05-06T00:23:49.570Z,100548.95
2019-05-06T00:26:34.978Z,100543.34
2019-05-06T00:29:14.371Z,100545.66
2019-05-06T00:31:41.444Z,100548.36
2019-05-06T00:34:08.501Z,100548.94
2019-05-06T00:36:35.575Z,100548.16
2019-05-06T00:39:14.966Z,100543.81
2019-05-06T00:41:43.439Z,100547.83
2019-05-06T00:44:10.595Z,100551.50
2019-05-06T00:46:37.663Z,100548.98
2019-05-06T00:49:04.751Z,100541.64
2019-05-06T00:51:33.765Z,100545.22
2019-05-06T00:54:10.363Z,100544.88
2019-05-06T00:56:37.430Z,100548.48
2019-05-06T00:59:04.506Z,100548.11
2019-05-06T01:01:31.587Z,100552.17
2019-05-06T01:03:58.666Z,100550.51
2019-05-06T01:06:25.731Z,100548.34
2019-05-06T01:08:54.372Z,100553.66
2019-05-06T01:11:23.821Z,100550.73
2019-05-06T01:13:57.404Z,100552.97
2019-05-06T01:16:24.973Z,100545.59
2019-05-06T01:18:54.102Z,100549.17
2019-05-06T01:21:21.108Z,100538.25
2019-05-06T01:23:48.168Z,100547.92
2019-05-06T01:26:15.770Z,100551.47
2019-05-06T01:28:43.680Z,100546.72
2019-05-06T01:31:10.747Z,100553.76
2019-05-06T01:33:37.806Z,100546.77
2019-05-06T01:36:04.891Z,100545.97
2019-05-06T01:38:37.598Z,100547.78
2019-05-06T01:41:25.683Z,100551.83
2019-05-06T01:43:54.640Z,100550.13
2019-05-06T01:46:24.201Z,100548.50
2019-05-06T01:48:51.091Z,100546.78
2019-05-06T01:51:19.465Z,100548.15
2019-05-06T01:53:47.063Z,100543.89
2019-05-06T01:56:14.581Z,100543.17
2019-05-06T01:58:43.883Z,100546.77
2019-05-06T02:01:10.693Z,100541.60
2019-05-06T02:03:37.764Z,100542.97
2019-05-06T02:06:05.099Z,100540.34
2019-05-06T02:08:33.708Z,100543.47
2019-05-06T02:11:00.835Z,100549.63
2019-05-06T02:13:27.905Z,100554.08
2019-05-06T02:15:54.961Z,100547.14
2019-05-06T02:18:24.252Z,100548.01
2019-05-06T02:20:53.785Z,100545.47
2019-05-06T02:23:24.201Z,100540.75
2019-05-06T02:25:53.979Z,100540.84
2019-05-06T02:28:21.122Z,100542.65
2019-05-06T02:31:11.015Z,100537.39
2019-05-06T02:34:06.749Z,100543.06
2019-05-06T02:36:45.600Z,100540.44
2019-05-06T02:39:14.042Z,100542.66
2019-05-06T02:41:43.043Z,100541.46
2019-05-06T02:44:13.617Z,100544.55
2019-05-06T02:46:44.148Z,100552.02
2019-05-06T02:49:17.665Z,100548.53
2019-05-06T02:51:44.731Z,100541.96
2019-05-06T02:54:13.540Z,100538.92
2019-05-06T02:56:43.335Z,100537.16
2019-05-06T02:59:12.564Z,100540.23
2019-05-06T03:01:38.744Z,100544.17
2019-05-06T03:04:05.827Z,100545.94
2019-05-06T03:06:33.730Z,100543.31
2019-05-06T03:09:03.126Z,100544.22
2019-05-06T03:11:32.967Z,100545.16
2019-05-06T03:13:59.298Z,100551.77
2019-05-06T03:16:26.355Z,100545.66
2019-05-06T03:18:53.641Z,100541.30
2019-05-06T03:21:44.876Z,100543.92
2019-05-06T03:24:29.094Z,100538.67
2019-05-06T03:26:56.929Z,100549.18
2019-05-06T03:29:25.359Z,100545.70
2019-05-06T03:31:56.348Z,100549.22
2019-05-06T03:34:48.974Z,100550.53
2019-05-06T03:36:56.030Z,100546.14
2019-05-06T03:39:23.260Z,100548.77
2019-05-06T03:41:53.482Z,100548.36
2019-05-06T03:44:19.437Z,100547.45
2019-05-06T03:47:05.704Z,100542.13
2019-05-06T03:49:35.721Z,100539.45
2019-05-06T03:52:03.000Z,100536.30
2019-05-06T03:54:34.025Z,100539.25
2019-05-06T03:57:03.147Z,100539.20
2019-05-06T03:59:33.312Z,100543.47
2019-05-06T04:01:59.041Z,100540.30
2019-05-06T04:04:26.109Z,100545.87
2019-05-06T04:06:53.955Z,100549.28
2019-05-06T04:09:23.775Z,100550.05
2019-05-06T04:11:53.889Z,100556.07
2019-05-06T04:14:23.702Z,100559.02
2019-05-06T04:17:03.207Z,100551.48
2019-05-06T04:19:38.078Z,100554.81
2019-05-06T04:22:33.093Z,100553.30
2019-05-06T04:25:19.747Z,100553.55
2019-05-06T04:27:53.961Z,100548.13
2019-05-06T04:30:24.066Z,100540.03
2019-05-06T04:32:52.898Z,100543.40
2019-05-06T04:35:19.158Z,100541.47
2019-05-06T04:37:46.549Z,100544.78
2019-05-06T04:40:13.612Z,100546.33
2019-05-06T04:42:43.922Z,100543.62
2019-05-06T04:45:09.978Z,100543.04
2019-05-06T04:47:37.040Z,100540.22
2019-05-06T04:50:05.359Z,100537.81
2019-05-06T04:52:34.237Z,100536.34
2019-05-06T04:55:03.370Z,100538.39
2019-05-06T04:57:33.592Z,100539.48
2019-05-06T05:00:03.801Z,100540.59
2019-05-06T05:02:29.308Z,100541.77
2019-05-06T05:04:56.377Z,100544.67
2019-05-06T05:07:23.939Z,100547.09
2019-05-06T05:09:53.916Z,100543.42
2019-05-06T05:12:33.458Z,100536.22
2019-05-06T05:15:12.147Z,100540.44
2019-05-06T05:17:49.794Z,100544.16
2019-05-06T05:20:16.858Z,100540.46
2019-05-06T05:22:43.921Z,100542.95
2019-05-06T05:25:12.204Z,100540.63
2019-05-06T05:27:39.450Z,100538.32
2019-05-06T05:30:07.014Z,100540.48
2019-05-06T05:32:34.301Z,100541.42
2019-05-06T05:35:02.136Z,100537.38
2019-05-06T05:37:29.259Z,100543.90
2019-05-06T05:39:56.328Z,100538.47
2019-05-06T05:42:33.330Z,100542.28
2019-05-06T05:45:02.713Z,100538.17
2019-05-06T05:47:29.716Z,100540.27
2019-05-06T05:50:25.875Z,100534.77
2019-05-06T05:52:52.962Z,100530.12
2019-05-06T05:55:21.954Z,100534.75
2019-05-06T05:57:49.474Z,100534.69
2019-05-06T06:00:17.552Z,100528.47
2019-05-06T06:02:44.695Z,100534.49
2019-05-06T06:05:12.408Z,100525.56
2019-05-06T06:07:39.812Z,100523.27
2019-05-06T06:10:18.294Z,100525.39
2019-05-06T06:12:47.355Z,100524.87
2019-05-06T06:15:42.237Z,100521.65
2019-05-06T06:18:28.687Z,100519.14
2019-05-06T06:21:17.036Z,100516.72
2019-05-06T06:23:37.750Z,100512.75
2019-05-06T06:26:04.945Z,100517.17
2019-05-06T06:28:33.293Z,100514.96
2019-05-06T06:31:08.201Z,100518.53
2019-05-06T06:33:35.294Z,100515.89
2019-05-06T06:36:17.685Z,100508.73
2019-05-06T06:38:49.440Z,100510.72
2019-05-06T06:41:16.726Z,100505.55
2019-05-06T06:43:45.967Z,100516.67
2019-05-06T06:46:13.039Z,100504.89
2019-05-06T06:48:40.148Z,100510.91
2019-05-06T06:51:07.221Z,100510.62
2019-05-06T06:53:34.295Z,100510.65
2019-05-06T06:56:21.878Z,100506.98
2019-05-06T06:59:22.178Z,100508.16
2019-05-06T07:02:02.725Z,100510.11
2019-05-06T07:04:35.185Z,100503.72
2019-05-06T07:07:03.177Z,100501.02
2019-05-06T07:09:32.245Z,100500.96
2019-05-06T07:11:59.390Z,100495.81
2019-05-06T07:14:26.471Z,100499.13
2019-05-06T07:16:53.556Z,100491.95
2019-05-06T07:19:29.758Z,100493.50
2019-05-06T07:21:57.546Z,100489.58
2019-05-06T07:24:24.620Z,100487.31
2019-05-06T07:26:56.309Z,100491.55
2019-05-06T07:29:26.483Z,100497.61
2019-05-06T07:31:53.509Z,100491.77
2019-05-06T07:34:22.738Z,100490.33
2019-05-06T07:36:49.747Z,100485.11
2019-05-06T07:39:16.826Z,100488.74
2019-05-06T07:41:48.641Z,100495.30
2019-05-06T07:44:29.912Z,100498.88
2019-05-06T07:47:06.736Z,100483.83
2019-05-06T07:49:33.809Z,100482.97
2019-05-06T07:52:02.863Z,100488.48
2019-05-06T07:54:30.158Z,100493.19
2019-05-06T07:56:57.699Z,100485.41
2019-05-06T07:59:24.789Z,100486.68
2019-05-06T08:01:54.047Z,100479.19
2019-05-06T08:04:23.106Z,100489.97
2019-05-06T08:06:52.275Z,100483.52
2019-05-06T08:09:19.319Z,100489.83
2019-05-06T08:11:46.406Z,100481.58
2019-05-06T08:14:13.475Z,100494.70
2019-05-06T08:16:50.319Z,100480.66
2019-05-06T08:19:17.384Z,100491.33
2019-05-06T08:21:46.349Z,100485.43
2019-05-06T08:24:13.428Z,100483.20
2019-05-06T08:26:42.722Z,100476.73
2019-05-06T08:29:09.467Z,100472.30
2019-05-06T08:31:36.634Z,100481.74
2019-05-06T08:34:05.864Z,100482.77
2019-05-06T08:36:53.201Z,100475.27
2019-05-06T08:39:22.024Z,100482.52
2019-05-06T08:41:49.240Z,100486.76
2019-05-06T08:44:16.343Z,100465.02
2019-05-06T08:46:43.771Z,100476.75
2019-05-06T08:49:12.302Z,100475.16
2019-05-06T08:51:45.759Z,100484.58
2019-05-06T08:54:19.381Z,100479.47
2019-05-06T08:56:46.459Z,100483.57
2019-05-06T08:59:14.016Z,100479.05
2019-05-06T09:01:46.994Z,100469.52
2019-05-06T09:04:16.332Z,100487.52
2019-05-06T09:06:43.387Z,100482.22
2019-05-06T09:09:12.809Z,100463.45
2019-05-06T09:11:39.505Z,100478.41
2019-05-06T09:14:09.691Z,100473.19
2019-05-06T09:16:35.733Z,100472.04
2019-05-06T09:19:04.508Z,100471.14
2019-05-06T09:21:33.545Z,100480.69
2019-05-06T09:24:02.318Z,100467.91
2019-05-06T09:26:44.110Z,100467.25
2019-05-06T09:29:15.144Z,100465.31
2019-05-06T09:31:45.368Z,100469.41
2019-05-06T09:34:27.855Z,100468.50
2019-05-06T09:37:13.336Z,100471.37
2019-05-06T09:39:43.032Z,100476.45
2019-05-06T09:42:12.650Z,100479.50
2019-05-06T09:44:42.694Z,100470.61
2019-05-06T09:47:14.311Z,100485.28
2019-05-06T09:49:42.612Z,100447.96
2019-05-06T09:52:09.822Z,100474.51
2019-05-06T09:54:55.551Z,100477.53
2019-05-06T09:57:28.363Z,100479.38
2019-05-06T09:59:55.449Z,100478.27
2019-05-06T10:02:23.162Z,100484.45
2019-05-06T10:04:52.241Z,100484.70
2019-05-06T10:07:19.342Z,100477.99
2019-05-06T10:09:46.441Z,100484.52
2019-05-06T10:12:13.512Z,100483.63
2019-05-06T10:14:42.974Z,100485.10
2019-05-06T10:17:09.658Z,100477.31
2019-05-06T10:19:37.043Z,100484.73
2019-05-06T10:22:04.123Z,100477.96
2019-05-06T10:24:32.374Z,100488.28
2019-05-06T10:26:59.558Z,100481.06
2019-05-06T10:29:43.397Z,100477.62
2019-05-06T10:32:25.550Z,100480.56
2019-05-06T10:34:52.803Z,100484.34
2019-05-06T10:37:36.251Z,100491.13
2019-05-06T10:40:22.661Z,100490.56
2019-05-06T10:43:02.682Z,100493.98
2019-05-06T10:45:32.454Z,100495.44
2019-05-06T10:47:59.706Z,100476.56
2019-05-06T10:50:29.518Z,100488.12
2019-05-06T10:53:14.896Z,100501.59
2019-05-06T10:55:45.344Z,100507.91
2019-05-06T10:58:12.821Z,100500.99
2019-05-06T11:00:42.318Z,100502.78
2019-05-06T11:03:15.508Z,100501.51
2019-05-06T11:05:43.337Z,100495.17
2019-05-06T11:08:10.817Z,100485.39
2019-05-06T11:10:41.389Z,100490.72
2019-05-06T11:13:08.874Z,100486.17
2019-05-06T11:15:36.122Z,100486.22
2019-05-06T11:18:04.747Z,100495.41
2019-05-06T11:20:33.558Z,100491.42
2019-05-06T11:23:02.094Z,100496.59
2019-05-06T11:25:32.305Z,100493.93
2019-05-06T11:27:59.527Z,100483.61
2019-05-06T11:30:45.131Z,100483.85
2019-05-06T11:33:32.930Z,100490.98
2019-05-06T11:36:15.275Z,100490.31
2019-05-06T11:38:43.179Z,100483.63
2019-05-06T11:41:12.997Z,100485.00
2019-05-06T11:43:39.422Z,100485.80
2019-05-06T11:46:08.958Z,100488.02
2019-05-06T11:48:37.232Z,100483.65
2019-05-06T11:51:06.314Z,100492.89
2019-05-06T11:53:33.411Z,100487.59
2019-05-06T11:56:02.149Z,100484.77
2019-05-06T11:58:46.437Z,100479.56
2019-05-06T12:01:20.336Z,100493.12
2019-05-06T12:03:47.403Z,100494.00
2019-05-06T12:06:14.475Z,100493.75
2019-05-06T12:08:43.197Z,100484.77
2019-05-06T12:11:12.661Z,100487.03
2019-05-06T12:13:39.461Z,100498.77
2019-05-06T12:16:06.539Z,100497.96
2019-05-06T12:18:33.651Z,100490.70
2019-05-06T12:21:11.009Z,100497.56
2019-05-06T12:23:29.678Z,100490.13
2019-05-06T12:25:56.835Z,100497.00
2019-05-06T12:28:23.919Z,100498.92
2019-05-06T12:30:52.444Z,100500.95
2019-05-06T12:33:39.294Z,100489.91
2019-05-06T12:36:17.986Z,100481.71
2019-05-06T12:39:06.552Z,100489.77
2019-05-06T12:41:34.332Z,100481.89
2019-05-06T12:44:03.117Z,100472.52
2019-05-06T12:46:35.848Z,100471.23
2019-05-06T12:49:03.269Z,100469.73
2019-05-06T12:51:32.244Z,100486.20
2019-05-06T12:53:59.483Z,100482.88
2019-05-06T12:56:26.573Z,100476.84
2019-05-06T12:58:53.641Z,100470.11
2019-05-06T13:01:20.739Z,100468.48
2019-05-06T13:03:47.812Z,100464.70
2019-05-06T13:06:14.913Z,100471.27
2019-05-06T13:08:56.719Z,100464.40
2019-05-06T13:11:12.957Z,100456.81
2019-05-06T13:13:55.553Z,100466.48
2019-05-06T13:16:08.919Z,100478.36
2019-05-06T13:18:35.987Z,100469.14
2019-05-06T13:21:06.450Z,100468.19
2019-05-06T13:23:41.044Z,100455.77
2019-05-06T13:26:08.287Z,100467.75
2019-05-06T13:28:38.262Z,100468.45
2019-05-06T13:31:19.460Z,100467.28
2019-05-06T13:33:55.133Z,100460.84
2019-05-06T13:36:22.832Z,100458.07
2019-05-06T13:38:56.626Z,100463.87
2019-05-06T13:41:19.223Z,100463.19
2019-05-06T13:43:54.943Z,100461.19
2019-05-06T13:46:25.332Z,100451.04
2019-05-06T13:49:13.352Z,100454.27
2019-05-06T13:51:43.119Z,100454.52
2019-05-06T13:54:13.644Z,100456.42
2019-05-06T13:56:39.283Z,100456.70
2019-05-06T13:59:06.370Z,100454.64
2019-05-06T14:01:46.180Z,100449.38
2019-05-06T14:04:13.856Z,100454.32
2019-05-06T14:06:43.146Z,100451.13
2019-05-06T14:09:25.590Z,100448.56
2019-05-06T14:11:38.879Z,100446.04
2019-05-06T14:14:05.953Z,100448.20
2019-05-06T14:16:33.576Z,100436.32
2019-05-06T14:19:03.990Z,100441.11
2019-05-06T14:21:32.409Z,100437.74
2019-05-06T14:23:59.551Z,100439.36
2019-05-06T14:26:38.678Z,100441.46
2019-05-06T14:29:14.415Z,100443.31
2019-05-06T14:31:45.001Z,100442.03
2019-05-06T14:34:14.229Z,100446.27
2019-05-06T14:36:43.372Z,100446.58
2019-05-06T14:39:23.677Z,100442.64
2019-05-06T14:41:53.527Z,100443.73
2019-05-06T14:44:23.099Z,100443.22
2019-05-06T14:46:56.022Z,100443.09
2019-05-06T14:49:23.093Z,100449.09
2019-05-06T14:51:50.158Z,100444.85
2019-05-06T14:54:17.227Z,100451.83
2019-05-06T14:56:53.246Z,100453.92
2019-05-06T14:59:20.160Z,100450.02
2019-05-06T15:01:47.235Z,100455.83
2019-05-06T15:04:14.291Z,100455.01
2019-05-06T15:06:42.554Z,100458.22
2019-05-06T15:09:13.406Z,100468.98
2019-05-06T15:11:43.161Z,100472.77
2019-05-06T15:14:09.682Z,100465.83
2019-05-06T15:16:36.766Z,100459.56
2019-05-06T15:19:05.046Z,100462.56
2019-05-06T15:21:37.802Z,100462.91
2019-05-06T15:24:02.636Z,100459.67
2019-05-06T15:26:29.914Z,100458.34
2019-05-06T15:28:56.982Z,100452.69
2019-05-06T15:31:32.689Z,100447.52
2019-05-06T15:34:02.573Z,100454.56
2019-05-06T15:36:38.764Z,100450.00
2019-05-06T15:39:06.483Z,100447.41
2019-05-06T15:41:33.561Z,100451.48
2019-05-06T15:44:02.843Z,100440.48
2019-05-06T15:46:29.674Z,100432.95
2019-05-06T15:48:58.531Z,100429.25
2019-05-06T15:51:34.870Z,100427.83
2019-05-06T15:54:03.563Z,100425.81
2019-05-06T15:56:32.742Z,100422.20
2019-05-06T15:58:59.651Z,100423.70
2019-05-06T16:01:28.525Z,100417.58
2019-05-06T16:03:55.595Z,100407.61
2019-05-06T16:06:22.971Z,100405.09
2019-05-06T16:08:52.623Z,100405.91
2019-05-06T16:11:22.162Z,100403.16
2019-05-06T16:13:48.799Z,100405.30
2019-05-06T16:16:15.877Z,100402.77
2019-05-06T16:18:42.964Z,100410.48
2019-05-06T16:21:10.241Z,100403.95
2019-05-06T16:23:42.411Z,100406.15
2019-05-06T16:26:09.579Z,100415.73
2019-05-06T16:28:36.646Z,100415.88
2019-05-06T16:31:04.516Z,100411.58
2019-05-06T16:33:32.941Z,100419.32
2019-05-06T16:36:00.244Z,100411.11
2019-05-06T16:38:27.314Z,100415.39
2019-05-06T16:41:09.098Z,100419.03
2019-05-06T16:43:23.358Z,100415.78
2019-05-06T16:45:53.251Z,100424.99
2019-05-06T16:48:22.734Z,100419.89
2019-05-06T16:50:49.865Z,100421.74
2019-05-06T16:53:19.934Z,100420.29
2019-05-06T16:55:58.701Z,100422.81
2019-05-06T16:58:28.331Z,100416.91
2019-05-06T17:00:55.390Z,100421.59
2019-05-06T17:03:38.622Z,100422.66
2019-05-06T17:06:25.310Z,100428.05
2019-05-06T17:08:52.906Z,100430.33
2019-05-06T17:11:28.017Z,100431.33
2019-05-06T17:13:49.138Z,100436.80
2019-05-06T17:16:16.363Z,100443.63
2019-05-06T17:18:43.442Z,100441.09
2019-05-06T17:21:10.539Z,100440.50
2019-05-06T17:23:42.328Z,100443.84
2019-05-06T17:26:09.403Z,100436.11
2019-05-06T17:28:57.166Z,100431.78
2019-05-06T17:31:42.244Z,100425.84
2019-05-06T17:34:09.951Z,100422.84
2019-05-06T17:36:38.530Z,100422.93
2019-05-06T17:39:09.666Z,100422.05
2019-05-06T17:41:45.953Z,100418.16
2019-05-06T17:44:07.014Z,100419.54
2019-05-06T17:46:39.707Z,100416.98
2019-05-06T17:49:21.562Z,100422.55
2019-05-06T17:52:13.889Z,100415.68
2019-05-06T17:54:42.871Z,100418.67
2019-05-06T17:57:12.203Z,100413.45
2019-05-06T17:59:38.915Z,100412.88
2019-05-06T18:02:10.044Z,100416.50
2019-05-06T18:04:37.102Z,100418.31
2019-05-06T18:07:04.206Z,100414.33
2019-05-06T18:09:33.445Z,100412.66
2019-05-06T18:12:03.107Z,100413.64
2019-05-06T18:14:32.645Z,100404.65
2019-05-06T18:16:59.543Z,100410.95
2019-05-06T18:19:26.611Z,100409.02
2019-05-06T18:21:53.815Z,100413.39
2019-05-06T18:24:22.899Z,100414.84
2019-05-06T18:26:49.847Z,100416.16
2019-05-06T18:29:16.920Z,100409.65
2019-05-06T18:31:45.166Z,100412.56
2019-05-06T18:34:12.891Z,100410.25
2019-05-06T18:36:40.123Z,100416.60
2019-05-06T18:39:07.406Z,100419.88
2019-05-06T18:41:35.102Z,100422.03
2019-05-06T18:44:02.416Z,100423.40
2019-05-06T18:46:29.525Z,100423.83
2019-05-06T18:48:57.835Z,100426.08
2019-05-06T18:51:24.914Z,100428.22
2019-05-06T18:53:52.505Z,100423.02
2019-05-06T18:56:19.680Z,100428.77
2019-05-06T18:58:46.800Z,100425.30
2019-05-06T19:01:13.892Z,100419.86
2019-05-06T19:03:55.393Z,100425.04
2019-05-06T19:06:23.685Z,100422.10
2019-05-06T19:09:06.658Z,100429.31
2019-05-06T19:11:33.794Z,100419.38
2019-05-06T19:14:02.107Z,100417.16
2019-05-06T19:16:29.409Z,100421.13
2019-05-06T19:18:56.498Z,100419.38
2019-05-06T19:21:24.524Z,100420.63
2019-05-06T19:23:51.938Z,100419.05
2019-05-06T19:26:20.642Z,100414.32
2019-05-06T19:28:48.143Z,100422.89
2019-05-06T19:31:15.222Z,100417.73
2019-05-06T19:33:43.066Z,100416.41
2019-05-06T19:36:12.455Z,100417.23
2019-05-06T19:38:39.262Z,100404.84
2019-05-06T19:41:07.127Z,100418.39
2019-05-06T19:43:34.211Z,100413.09
2019-05-06T19:46:02.613Z,100406.45
2019-05-06T19:48:32.648Z,100409.10
2019-05-06T19:50:58.952Z,100413.06
2019-05-06T19:53:26.027Z,100411.35
2019-05-06T19:55:53.111Z,100406.95
2019-05-06T19:58:20.200Z,100414.98
2019-05-06T20:00:47.286Z,100412.05
2019-05-06T20:03:14.774Z,100411.58
2019-05-06T20:06:04.264Z,100409.80
2019-05-06T20:08:43.815Z,100402.30
2019-05-06T20:11:25.594Z,100413.44
2019-05-06T20:13:52.720Z,100409.67
2019-05-06T20:16:20.289Z,100412.02
2019-05-06T20:18:47.508Z,100415.78
2019-05-06T20:21:14.935Z,100418.52
2019-05-06T20:23:42.573Z,100422.95
2019-05-06T20:26:12.391Z,100416.51
2019-05-06T20:28:39.602Z,100419.64
2019-05-06T20:31:06.670Z,100428.98
2019-05-06T20:33:33.746Z,100427.09
2019-05-06T20:36:00.822Z,100431.00
2019-05-06T20:38:27.906Z,100425.91
2019-05-06T20:40:54.975Z,100433.03
2019-05-06T20:43:23.974Z,100429.65
2019-05-06T20:45:52.189Z,100428.51
2019-05-06T20:48:19.510Z,100421.57
2019-05-06T20:50:46.608Z,100419.42
2019-05-06T20:53:13.680Z,100417.81
2019-05-06T20:55:43.150Z,100415.23
2019-05-06T20:58:12.054Z,100417.59
2019-05-06T21:00:38.708Z,100416.36
2019-05-06T21:03:05.815Z,100419.09
2019-05-06T21:05:32.905Z,100420.94
2019-05-06T21:08:02.035Z,100427.08
2019-05-06T21:10:28.959Z,100422.40
2019-05-06T21:12:56.031Z,100424.84
2019-05-06T21:15:23.166Z,100422.44
2019-05-06T21:17:50.204Z,100419.42
2019-05-06T21:20:17.582Z,100420.28
2019-05-06T21:22:44.677Z,100428.17
2019-05-06T21:25:12.973Z,100425.93
2019-05-06T21:27:42.263Z,100431.78
2019-05-06T21:30:10.466Z,100429.66
2019-05-06T21:32:37.534Z,100427.02
2019-05-06T21:35:05.710Z,100420.42
2019-05-06T21:37:32.776Z,100424.55
2019-05-06T21:39:59.843Z,100430.82
2019-05-06T21:42:26.918Z,100430.45
2019-05-06T21:44:54.022Z,100435.27
2019-05-06T21:47:21.101Z,100424.63
2019-05-06T21:49:48.198Z,100428.97
2019-05-06T21:52:15.270Z,100430.23
2019-05-06T21:54:43.379Z,100431.55
2019-05-06T21:57:12.227Z,100432.52
2019-05-06T21:59:39.510Z,100429.50
2019-05-06T22:02:07.968Z,100433.86
2019-05-06T22:04:35.051Z,100429.88
2019-05-06T22:07:03.041Z,100433.46
2019-05-06T22:09:32.193Z,100429.98
2019-05-06T22:11:59.184Z,100426.63
2019-05-06T22:14:26.248Z,100424.98
2019-05-06T22:16:53.307Z,100429.97
2019-05-06T22:19:20.391Z,100419.91
2019-05-06T22:22:07.752Z,100416.32
2019-05-06T22:24:57.696Z,100417.58
2019-05-06T22:27:22.173Z,100406.15
2019-05-06T22:29:49.239Z,100404.77
2019-05-06T22:32:16.318Z,100404.75
2019-05-06T22:34:43.404Z,100400.71
2019-05-06T22:37:12.537Z,100405.01
2019-05-06T22:39:39.449Z,100405.87
2019-05-06T22:42:06.511Z,100397.93
2019-05-06T22:44:33.592Z,100395.69
2019-05-06T22:47:02.621Z,100394.34
2019-05-06T22:49:31.958Z,100396.16
2019-05-06T22:51:58.696Z,100391.88
2019-05-06T22:54:25.781Z,100388.95
2019-05-06T22:56:54.566Z,100385.91
2019-05-06T22:59:24.429Z,100394.36
2019-05-06T23:02:10.367Z,100387.91
2019-05-06T23:04:38.257Z,100392.83
2019-05-06T23:07:05.335Z,100388.61
2019-05-06T23:09:32.660Z,100389.15
2019-05-06T23:11:59.775Z,100373.41
2019-05-06T23:14:31.544Z,100375.72
2019-05-06T23:16:55.818Z,100377.58
2019-05-06T23:19:24.425Z,100370.63
2019-05-06T23:21:53.329Z,100372.95
2019-05-06T23:24:22.536Z,100372.63
2019-05-06T23:26:49.905Z,100367.05
2019-05-06T23:29:16.990Z,100373.39
2019-05-06T23:31:44.062Z,100365.69
2019-05-06T23:34:12.513Z,100369.77
2019-05-06T23:37:22.832Z,100368.15
2019-05-06T23:40:38.115Z,100376.20
2019-05-06T23:43:42.845Z,100370.22
2019-05-06T23:46:46.534Z,100371.27
2019-05-06T23:49:52.553Z,100371.48
2019-05-06T23:52:55.791Z,100369.00
2019-05-06T23:55:59.839Z,100359.41
2019-05-06T23:58:25.838Z,100359.13
